(°C)
(°C)
WSW
WSW
W
W
WNW
WNW
WNW
(km/h)
11-19
9-17
9-16
8-16
7-16
8-17
8-17
(mm)
0
0
0
0
0
0
0
(%)
0
0
0
0
0
0
0

Wysokość słońca

/ -41.1°
sun-icon
UV 3
05:55
17:51
Ubywający Księżyc garbaty (264°)
21:40
13:27

METAR dla 46.38°N 44.32°E (URWI)

Czas Warunki Temperatura/
Punkt rosy
Wiatr Widzialność Pogoda Chmury Ciśn. atm. Zmień Surowy
9°C / 7°C 300º 8kt >10km - 1016 - URWI 272200Z AUTO 30004MPS 9999 // ///067/// 09/07 Q1016
10°C / 6°C 300º 8kt >10km - 1016 - URWI 272130Z AUTO 30004MPS 9999 // ///066/// 10/06 Q1016
10°C / 7°C 300º 10kt >10km - 1016 - URWI 272100Z AUTO 30005MPS 9999 // ///066/// 10/07 Q1016
10°C / 6°C 290º 12kt >10km - 1016 - URWI 272030Z AUTO 29006MPS 9999 // ///064/// 10/06 Q1016
10°C / 6°C 300º 10kt >10km - 1016 - URWI 272000Z AUTO 30005MPS 9999 // ///063/// 10/06 Q1016
10°C / 6°C 290º 10kt >10km - 1016 - URWI 271930Z AUTO 29005MPS 9999 // ///061/// 10/06 Q1016
9°C / 6°C 290º 8kt >10km - 1016 - URWI 271900Z AUTO 29004MPS 9999 // ///////// 09/06 Q1016
9°C / 6°C 290º 12kt >10km - 1016 - URWI 271830Z AUTO 29006MPS 9999 // ///062/// 09/06 Q1016
9°C / 6°C 290º 10kt >10km - 1016 - URWI 271800Z AUTO 29005MPS 9999 // ///////// 09/06 Q1016
10°C / 6°C 290º 12kt >10km - 1016 - URWI 271730Z AUTO 29006MPS 9999 // ///055/// 10/06 Q1016
9°C / 6°C 290º 10kt >10km - 1015 - URWI 271700Z AUTO 29005MPS 9999 // ///////// 09/06 Q1015
10°C / 6°C 290º 10kt >10km - 1015 - URWI 271630Z AUTO 29005MPS 9999 // ///////// 10/06 Q1015
10°C / 6°C 280º 8kt >10km - 1015 - URWI 271600Z AUTO 28004MPS 9999 // ///////// 10/06 Q1015
10°C / 6°C 280º 10kt >10km - 1015 - URWI 271530Z AUTO 28005MPS 9999 // ///////// 10/06 Q1015
11°C / 6°C 290º 10kt >10km - 1015 - URWI 271500Z AUTO 29005MPS 9999 // ///////// 11/06 Q1015
VFR 12°C / 6°C 300º 12kt >10km - Clouds and Visibility OK 1015 No Significant change URWI 271430Z 30006MPS CAVOK 12/06 Q1015 NOSIG
13°C / 6°C 300º 14kt >10km - 1014 No Significant change. Runway 27: Clear and dry, 1-10% contamination with <1mm, friction coefficient 0.65. URWI 271400Z 30007MPS 9999 FEW/// 13/06 Q1014 R27/010065 NOSIG
VFR 13°C / 7°C 320º 16kt >10km - Scattered Clouds 2400ft 1014 No Significant change. Runway 27: Clear and dry, 1-10% contamination with <1mm, friction coefficient 0.65. URWI 271330Z 32008MPS 9999 SCT024 13/07 Q1014 R27/010065 NOSIG
VFR 13°C / 6°C 320º 19kt >10km - Scattered Clouds 2800ft 1014 Temporary: 30012G19MPS . Runway 27: Clear and dry, 1-10% contamination with <1mm, friction coefficient 0.65. URWI 271300Z 32010MPS 9999 SCT028 13/06 Q1014 R27/010065 TEMPO 30012G19MPS
VFR 13°C / 6°C 320º 19kt >10km - Scattered Clouds 2600ft 1014 Temporary: 30012G19MPS . Runway 27: Clear and dry, 1-10% contamination with <1mm, friction coefficient 0.65. URWI 271230Z 32010MPS 9999 SCT026 13/06 Q1014 R27/010065 TEMPO 30012G19MPS
14°C / 7°C 320º 17kt >10km - 1014 Temporary: 30012G19MPS . Runway 27: Clear and dry, 1-10% contamination with <1mm, friction coefficient 0.65. URWI 271200Z 32009MPS 9999 SCT/// 14/07 Q1014 R27/010065 TEMPO 30012G19MPS
VFR 14°C / 7°C 320º 17kt >10km - Scattered Clouds 2800ft 1013 Temporary: 30012G19MPS . Runway 27: Clear and dry, 1-10% contamination with <1mm, friction coefficient 0.65. URWI 271130Z 32009MPS 9999 SCT028 14/07 Q1013 R27/010065 TEMPO 30012G19MPS
VFR 15°C / 6°C 310º 19kt >10km - Scattered Clouds 3200ft 1013 Temporary: 30012G19MPS . Runway 27: Clear and dry, 1-10% contamination with <1mm, friction coefficient 0.65. URWI 271100Z 31010MPS 9999 SCT032 15/06 Q1013 R27/010065 TEMPO 30012G19MPS
VFR 15°C / 6°C 300º 17kt >10km - Scattered Clouds 3200ft 1013 Temporary: 30012G19MPS . Runway 27: Clear and dry, 1-10% contamination with <1mm, friction coefficient 0.65. URWI 271030Z 30009MPS 9999 SCT032 15/06 Q1013 R27/010065 TEMPO 30012G19MPS

9°C / 7°C

[Więcej]
Wiatr 300º 8kt
Widzialność >10km
Pogoda -
Chmury
Ciśn. atm. 1016
Zmień -
Surowy URWI 272200Z AUTO 30004MPS 9999 // ///067/// 09/07 Q1016

10°C / 6°C

[Więcej]
Wiatr 300º 8kt
Widzialność >10km
Pogoda -
Chmury
Ciśn. atm. 1016
Zmień -
Surowy URWI 272130Z AUTO 30004MPS 9999 // ///066/// 10/06 Q1016

10°C / 7°C

[Więcej]
Wiatr 300º 10kt
Widzialność >10km
Pogoda -
Chmury
Ciśn. atm. 1016
Zmień -
Surowy URWI 272100Z AUTO 30005MPS 9999 // ///066/// 10/07 Q1016

10°C / 6°C

[Więcej]
Wiatr 290º 12kt
Widzialność >10km
Pogoda -
Chmury
Ciśn. atm. 1016
Zmień -
Surowy URWI 272030Z AUTO 29006MPS 9999 // ///064/// 10/06 Q1016

10°C / 6°C

[Więcej]
Wiatr 300º 10kt
Widzialność >10km
Pogoda -
Chmury
Ciśn. atm. 1016
Zmień -
Surowy URWI 272000Z AUTO 30005MPS 9999 // ///063/// 10/06 Q1016

10°C / 6°C

[Więcej]
Wiatr 290º 10kt
Widzialność >10km
Pogoda -
Chmury
Ciśn. atm. 1016
Zmień -
Surowy URWI 271930Z AUTO 29005MPS 9999 // ///061/// 10/06 Q1016

9°C / 6°C

[Więcej]
Wiatr 290º 8kt
Widzialność >10km
Pogoda -
Chmury
Ciśn. atm. 1016
Zmień -
Surowy URWI 271900Z AUTO 29004MPS 9999 // ///////// 09/06 Q1016

9°C / 6°C

[Więcej]
Wiatr 290º 12kt
Widzialność >10km
Pogoda -
Chmury
Ciśn. atm. 1016
Zmień -
Surowy URWI 271830Z AUTO 29006MPS 9999 // ///062/// 09/06 Q1016

9°C / 6°C

[Więcej]
Wiatr 290º 10kt
Widzialność >10km
Pogoda -
Chmury
Ciśn. atm. 1016
Zmień -
Surowy URWI 271800Z AUTO 29005MPS 9999 // ///////// 09/06 Q1016

10°C / 6°C

[Więcej]
Wiatr 290º 12kt
Widzialność >10km
Pogoda -
Chmury
Ciśn. atm. 1016
Zmień -
Surowy URWI 271730Z AUTO 29006MPS 9999 // ///055/// 10/06 Q1016

9°C / 6°C

[Więcej]
Wiatr 290º 10kt
Widzialność >10km
Pogoda -
Chmury
Ciśn. atm. 1015
Zmień -
Surowy URWI 271700Z AUTO 29005MPS 9999 // ///////// 09/06 Q1015

10°C / 6°C

[Więcej]
Wiatr 290º 10kt
Widzialność >10km
Pogoda -
Chmury
Ciśn. atm. 1015
Zmień -
Surowy URWI 271630Z AUTO 29005MPS 9999 // ///////// 10/06 Q1015

10°C / 6°C

[Więcej]
Wiatr 280º 8kt
Widzialność >10km
Pogoda -
Chmury
Ciśn. atm. 1015
Zmień -
Surowy URWI 271600Z AUTO 28004MPS 9999 // ///////// 10/06 Q1015

10°C / 6°C

[Więcej]
Wiatr 280º 10kt
Widzialność >10km
Pogoda -
Chmury
Ciśn. atm. 1015
Zmień -
Surowy URWI 271530Z AUTO 28005MPS 9999 // ///////// 10/06 Q1015

11°C / 6°C

[Więcej]
Wiatr 290º 10kt
Widzialność >10km
Pogoda -
Chmury
Ciśn. atm. 1015
Zmień -
Surowy URWI 271500Z AUTO 29005MPS 9999 // ///////// 11/06 Q1015

VFR

12°C / 6°C

[Więcej]
Wiatr 300º 12kt
Widzialność >10km
Pogoda -
Chmury Clouds and Visibility OK
Ciśn. atm. 1015
Zmień No Significant change
Surowy URWI 271430Z 30006MPS CAVOK 12/06 Q1015 NOSIG

13°C / 6°C

[Więcej]
Wiatr 300º 14kt
Widzialność >10km
Pogoda -
Chmury
Ciśn. atm. 1014
Zmień No Significant change. Runway 27: Clear and dry, 1-10% contamination with <1mm, friction coefficient 0.65.
Surowy URWI 271400Z 30007MPS 9999 FEW/// 13/06 Q1014 R27/010065 NOSIG

VFR

13°C / 7°C

[Więcej]
Wiatr 320º 16kt
Widzialność >10km
Pogoda -
Chmury Scattered Clouds 2400ft
Ciśn. atm. 1014
Zmień No Significant change. Runway 27: Clear and dry, 1-10% contamination with <1mm, friction coefficient 0.65.
Surowy URWI 271330Z 32008MPS 9999 SCT024 13/07 Q1014 R27/010065 NOSIG

VFR

13°C / 6°C

[Więcej]
Wiatr 320º 19kt
Widzialność >10km
Pogoda -
Chmury Scattered Clouds 2800ft
Ciśn. atm. 1014
Zmień Temporary: 30012G19MPS . Runway 27: Clear and dry, 1-10% contamination with <1mm, friction coefficient 0.65.
Surowy URWI 271300Z 32010MPS 9999 SCT028 13/06 Q1014 R27/010065 TEMPO 30012G19MPS

VFR

13°C / 6°C

[Więcej]
Wiatr 320º 19kt
Widzialność >10km
Pogoda -
Chmury Scattered Clouds 2600ft
Ciśn. atm. 1014
Zmień Temporary: 30012G19MPS . Runway 27: Clear and dry, 1-10% contamination with <1mm, friction coefficient 0.65.
Surowy URWI 271230Z 32010MPS 9999 SCT026 13/06 Q1014 R27/010065 TEMPO 30012G19MPS

14°C / 7°C

[Więcej]
Wiatr 320º 17kt
Widzialność >10km
Pogoda -
Chmury
Ciśn. atm. 1014
Zmień Temporary: 30012G19MPS . Runway 27: Clear and dry, 1-10% contamination with <1mm, friction coefficient 0.65.
Surowy URWI 271200Z 32009MPS 9999 SCT/// 14/07 Q1014 R27/010065 TEMPO 30012G19MPS

VFR

14°C / 7°C

[Więcej]
Wiatr 320º 17kt
Widzialność >10km
Pogoda -
Chmury Scattered Clouds 2800ft
Ciśn. atm. 1013
Zmień Temporary: 30012G19MPS . Runway 27: Clear and dry, 1-10% contamination with <1mm, friction coefficient 0.65.
Surowy URWI 271130Z 32009MPS 9999 SCT028 14/07 Q1013 R27/010065 TEMPO 30012G19MPS

VFR

15°C / 6°C

[Więcej]
Wiatr 310º 19kt
Widzialność >10km
Pogoda -
Chmury Scattered Clouds 3200ft
Ciśn. atm. 1013
Zmień Temporary: 30012G19MPS . Runway 27: Clear and dry, 1-10% contamination with <1mm, friction coefficient 0.65.
Surowy URWI 271100Z 31010MPS 9999 SCT032 15/06 Q1013 R27/010065 TEMPO 30012G19MPS

VFR

15°C / 6°C

[Więcej]
Wiatr 300º 17kt
Widzialność >10km
Pogoda -
Chmury Scattered Clouds 3200ft
Ciśn. atm. 1013
Zmień Temporary: 30012G19MPS . Runway 27: Clear and dry, 1-10% contamination with <1mm, friction coefficient 0.65.
Surowy URWI 271030Z 30009MPS 9999 SCT032 15/06 Q1013 R27/010065 TEMPO 30012G19MPS

TAF dla 46.38°N 44.32°E (URWI)

From till


From till Wind 300º 16kt. Gust 27kt. Visibility 10km or more. Scattered Clouds 1600ft.
Temporarly from till Wind 320º 19kt. Gust 33kt. Scattered Clouds 3000ft.
Becoming from till Wind 300º 10kt. Gust 23kt. Visibility 10km or more. Scattered Clouds 1600ft.

Surowy: TAF URWI 271056Z 2712/2721 30008G14MPS 9999 SCT016 TEMPO 2712/2718 32010G17MPS SCT030CB BECMG 2718/2719 30005G12MPS

Aktualne zdjęcia satelitarne i zdjęcia opadów deszczu dla 46.38°N 44.32°E

Wskaźnik lokalizacji znajduje się na 46.38°N 44.32°E. [Więcej]

Obraz satelitarny w czasie rzeczywistym łączy światło widzialne w ciągu dnia z promieniowaniem podczerwonym w nocy. W nocy obraz nie jest ciemny, ponieważ promieniowanie podczerwone może wykrywać różnice temperatur. Niestety niskie chmury i mgłę trudno odróżnić od temperatury gruntu, przez co mogą być prawie niewidoczne w nocy. Zdjęcia satelitarne Meteosat dla Europy są aktualizowane w czasie rzeczywistym co 5 minut. Obrazy GOES-16/GOES-17 (Ameryka Północna i Południowa) oraz Himawari (Azja) są aktualizowane co 10 minut.

Prawa autorskie 2021 EUMETSAT / meteoblue. / Prawa autorskie 2021 meteoblue

Radar i prognoza opadów na teraz dla 46.38°N 44.32°E

Mżawka
Lekki
Umiarkowane
Ulewne
Bardzo ciężkie
Grad

Wskaźnik lokalizacji jest umieszczony na 46.38°N 44.32°E. Animacja przedstawia radar opadów dla ostatniej godziny, jak również 1h prognozę pogody. Mżawka lub lekki opad śniegu może być niewidoczny dla radaru. Intensywność opadów jest oznaczona kolorami, od jasnoniebieskiego do pomarańczowego.